createdAt,value
2022-10-03T00:02:28.092Z,1.30
2022-10-03T00:05:21.051Z,1.60
2022-10-03T00:08:25.226Z,1.20
2022-10-03T00:10:55.261Z,1.30
2022-10-03T00:13:32.321Z,1.40
2022-10-03T00:16:15.253Z,1.70
2022-10-03T00:19:03.855Z,1.70
2022-10-03T00:21:37.234Z,1.30
2022-10-03T00:24:45.702Z,1.60
2022-10-03T00:27:26.589Z,1.30
2022-10-03T00:30:13.679Z,1.20
2022-10-03T00:32:49.329Z,1.20
2022-10-03T00:35:42.426Z,1.40
2022-10-03T00:38:24.810Z,1.40
2022-10-03T00:41:03.586Z,1.80
2022-10-03T00:43:52.366Z,1.40
2022-10-03T00:47:12.040Z,1.20
2022-10-03T00:50:03.337Z,1.50
2022-10-03T00:52:42.795Z,1.50
2022-10-03T00:55:34.713Z,1.70
2022-10-03T00:58:27.715Z,1.70
2022-10-03T01:01:05.631Z,1.40
2022-10-03T01:04:05.807Z,1.40
2022-10-03T01:07:11.149Z,1.20
2022-10-03T01:10:01.953Z,1.50
2022-10-03T01:13:06.692Z,1.40
2022-10-03T01:16:09.316Z,1.30
2022-10-03T01:18:42.245Z,1.20
2022-10-03T01:21:42.367Z,1.30
2022-10-03T01:24:18.236Z,1.60
2022-10-03T01:27:00.338Z,1.20
2022-10-03T01:29:55.138Z,1.10
2022-10-03T01:32:56.042Z,1.30
2022-10-03T01:35:22.921Z,1.40
2022-10-03T01:38:00.627Z,1.60
2022-10-03T01:40:43.855Z,1.40
2022-10-03T01:43:24.127Z,1.50
2022-10-03T01:46:13.347Z,1.20
2022-10-03T01:48:43.110Z,1.30
2022-10-03T01:51:17.014Z,1.30
2022-10-03T01:53:48.251Z,1.10
2022-10-03T01:56:36.385Z,1.90
2022-10-03T01:59:14.374Z,1.50
2022-10-03T02:02:07.918Z,1.50
2022-10-03T02:04:59.814Z,1.50
2022-10-03T02:07:41.711Z,1.30
2022-10-03T02:10:26.986Z,1.60
2022-10-03T02:12:54.751Z,1.20
2022-10-03T02:15:31.316Z,1.30
2022-10-03T02:18:13.223Z,1.30
2022-10-03T02:20:52.359Z,1.30
2022-10-03T02:23:40.088Z,1.20
2022-10-03T02:26:15.818Z,1.40
2022-10-03T02:28:59.379Z,1.50
2022-10-03T02:31:51.408Z,1.40
2022-10-03T02:34:33.574Z,1.50
2022-10-03T02:37:22.585Z,1.30
2022-10-03T02:40:20.268Z,1.50
2022-10-03T02:43:06.390Z,1.30
2022-10-03T02:45:56.126Z,1.10
2022-10-03T02:48:38.222Z,1.20
2022-10-03T02:51:18.167Z,1.30
2022-10-03T02:53:48.715Z,1.10
2022-10-03T02:56:39.004Z,1.40
2022-10-03T02:59:09.328Z,1.10
2022-10-03T03:01:59.998Z,1.30
2022-10-03T03:05:00.669Z,1.30
2022-10-03T03:08:03.258Z,1.20
2022-10-03T03:11:08.499Z,1.20
2022-10-03T03:14:13.433Z,1.40
2022-10-03T03:16:53.384Z,1.20
2022-10-03T03:19:48.595Z,1.00
2022-10-03T03:22:34.077Z,1.30
2022-10-03T03:25:26.520Z,1.20
2022-10-03T03:28:21.362Z,1.30
2022-10-03T03:31:13.527Z,1.10
2022-10-03T03:33:54.684Z,1.10
2022-10-03T03:36:38.206Z,1.00
2022-10-03T03:39:21.913Z,1.10
2022-10-03T03:42:22.466Z,1.50
2022-10-03T03:45:07.637Z,1.10
2022-10-03T03:48:16.045Z,1.60
2022-10-03T03:50:53.231Z,1.50
2022-10-03T03:53:51.413Z,1.30
2022-10-03T03:56:21.431Z,1.30
2022-10-03T03:58:55.348Z,1.50
2022-10-03T04:01:46.996Z,1.20
2022-10-03T04:04:44.632Z,1.10
2022-10-03T04:07:44.343Z,1.10
2022-10-03T04:10:47.889Z,1.30
2022-10-03T04:13:19.335Z,1.30
2022-10-03T04:16:43.812Z,1.30
2022-10-03T04:19:36.909Z,1.10
2022-10-03T04:22:29.819Z,1.10
2022-10-03T04:25:18.206Z,1.10
2022-10-03T04:27:51.217Z,1.10
2022-10-03T04:30:30.057Z,1.40
2022-10-03T04:33:27.168Z,1.30
2022-10-03T04:36:21.194Z,1.20
2022-10-03T04:38:57.861Z,1.20
2022-10-03T04:41:40.930Z,0.90
2022-10-03T04:44:28.205Z,1.10
2022-10-03T04:47:03.174Z,1.10
2022-10-03T04:49:53.746Z,1.20
2022-10-03T04:52:39.676Z,1.20
2022-10-03T04:55:41.268Z,1.50
2022-10-03T04:58:33.464Z,1.10
2022-10-03T05:01:13.415Z,1.10
2022-10-03T05:04:06.177Z,1.40
2022-10-03T05:06:49.048Z,1.00
2022-10-03T05:09:41.744Z,1.30
2022-10-03T05:12:17.188Z,1.30
2022-10-03T05:14:57.958Z,1.10
2022-10-03T05:17:39.375Z,1.20
2022-10-03T05:20:24.923Z,1.20
2022-10-03T05:23:02.856Z,1.20
2022-10-03T05:25:48.517Z,1.20
2022-10-03T05:28:15.757Z,1.40
2022-10-03T05:30:54.359Z,1.10
2022-10-03T05:33:39.767Z,1.80
2022-10-03T05:36:15.725Z,1.90
2022-10-03T05:39:01.006Z,1.90
2022-10-03T05:41:38.480Z,2.00
2022-10-03T05:44:11.998Z,2.20
2022-10-03T05:46:57.425Z,1.50
2022-10-03T05:49:33.850Z,1.90
2022-10-03T05:52:27.146Z,1.60
2022-10-03T05:55:20.278Z,2.00
2022-10-03T05:58:10.060Z,1.80
2022-10-03T06:00:40.179Z,1.70
2022-10-03T06:03:41.121Z,1.70
2022-10-03T06:06:21.168Z,1.70
2022-10-03T06:09:14.472Z,1.70
2022-10-03T06:11:56.462Z,1.60
2022-10-03T06:14:30.204Z,1.60
2022-10-03T06:17:10.098Z,1.60
2022-10-03T06:19:47.693Z,1.50
2022-10-03T06:22:49.677Z,1.50
2022-10-03T06:25:36.268Z,1.60
2022-10-03T06:28:06.171Z,1.60
2022-10-03T06:30:58.072Z,1.40
2022-10-03T06:33:56.202Z,1.60
2022-10-03T06:36:49.670Z,1.40
2022-10-03T06:39:59.029Z,1.20
2022-10-03T06:42:47.151Z,1.30
2022-10-03T06:45:32.296Z,1.40
2022-10-03T06:48:02.341Z,1.40
2022-10-03T06:50:42.308Z,1.50
2022-10-03T06:53:24.017Z,1.70
2022-10-03T06:56:38.529Z,1.40
2022-10-03T06:59:26.414Z,1.30
2022-10-03T07:02:19.520Z,1.30
2022-10-03T07:05:05.644Z,1.40
2022-10-03T07:08:03.234Z,1.50
2022-10-03T07:10:30.256Z,1.20
2022-10-03T07:13:07.211Z,1.60
2022-10-03T07:18:58.379Z,1.50
2022-10-03T07:21:33.308Z,1.30
2022-10-03T07:24:15.297Z,1.40
2022-10-03T07:27:22.755Z,1.20
2022-10-03T07:30:17.357Z,1.60
2022-10-03T07:33:08.997Z,1.20
2022-10-03T07:36:03.595Z,1.40
2022-10-03T07:38:58.561Z,1.20
2022-10-03T07:41:39.867Z,1.50
2022-10-03T07:44:31.458Z,1.40
2022-10-03T07:47:19.408Z,1.30
2022-10-03T07:50:10.416Z,1.50
2022-10-03T07:53:07.427Z,1.40
2022-10-03T07:55:56.010Z,1.40
2022-10-03T07:58:26.400Z,1.30
2022-10-03T08:01:09.734Z,1.10
2022-10-03T08:03:55.633Z,1.10
2022-10-03T08:07:15.421Z,1.30
2022-10-03T08:10:18.917Z,1.10
2022-10-03T08:13:06.908Z,1.50
2022-10-03T08:15:55.084Z,1.80
2022-10-03T08:18:56.016Z,1.50
2022-10-03T08:21:40.071Z,1.20
2022-10-03T08:24:10.273Z,1.30
2022-10-03T08:27:06.581Z,1.10
2022-10-03T08:29:33.545Z,1.50
2022-10-03T08:32:06.233Z,1.20
2022-10-03T08:35:08.476Z,1.30
2022-10-03T08:37:39.081Z,1.20
2022-10-03T08:40:19.007Z,1.20
2022-10-03T08:43:23.718Z,1.40
2022-10-03T08:45:59.665Z,1.40
2022-10-03T08:48:45.335Z,1.10
2022-10-03T08:51:50.269Z,1.10
2022-10-03T08:54:31.905Z,1.40
2022-10-03T08:57:26.431Z,1.30
2022-10-03T09:00:09.582Z,1.40
2022-10-03T09:03:20.434Z,1.30
2022-10-03T09:05:51.398Z,1.40
2022-10-03T09:08:42.894Z,1.40
2022-10-03T09:11:19.193Z,0.90
2022-10-03T09:14:23.405Z,1.10
2022-10-03T09:17:31.035Z,1.20
2022-10-03T09:20:20.188Z,1.00
2022-10-03T09:23:02.331Z,1.20
2022-10-03T09:25:47.962Z,1.60
2022-10-03T09:28:36.834Z,1.60
2022-10-03T09:31:38.499Z,1.10
2022-10-03T09:34:33.902Z,1.10
2022-10-03T09:37:32.310Z,1.10
2022-10-03T09:40:36.820Z,1.20
2022-10-03T09:43:10.016Z,0.90
2022-10-03T09:45:37.366Z,1.00
2022-10-03T09:48:13.761Z,1.00
2022-10-03T09:50:53.210Z,1.20
2022-10-03T09:54:00.777Z,1.20
2022-10-03T09:56:49.321Z,1.20
2022-10-03T09:59:33.724Z,1.10
2022-10-03T10:02:31.372Z,1.10
2022-10-03T10:05:47.755Z,1.20
2022-10-03T10:08:36.613Z,0.90
2022-10-03T10:11:17.690Z,1.30
2022-10-03T10:14:18.643Z,1.10
2022-10-03T10:17:04.457Z,1.20
2022-10-03T10:19:59.937Z,1.30
2022-10-03T10:22:54.737Z,1.50
2022-10-03T10:25:29.344Z,1.10
2022-10-03T10:28:11.876Z,1.30
2022-10-03T10:31:08.262Z,1.20
2022-10-03T10:34:09.164Z,1.30
2022-10-03T10:37:05.819Z,1.30
2022-10-03T10:39:56.099Z,1.00
2022-10-03T10:43:01.140Z,0.90
2022-10-03T10:45:39.360Z,1.20
2022-10-03T10:48:09.458Z,1.20
2022-10-03T10:51:11.953Z,0.90
2022-10-03T10:53:58.035Z,1.10
2022-10-03T10:56:44.659Z,1.10
2022-10-03T10:59:48.467Z,1.20
2022-10-03T11:02:34.065Z,1.10
2022-10-03T11:05:01.129Z,1.20
2022-10-03T11:07:59.790Z,1.40
2022-10-03T11:10:52.643Z,1.20
2022-10-03T11:13:41.612Z,1.20
2022-10-03T11:17:00.267Z,1.20
2022-10-03T11:19:51.591Z,0.90
2022-10-03T11:22:30.767Z,1.20
2022-10-03T11:25:13.349Z,1.40
2022-10-03T11:27:46.425Z,1.10
2022-10-03T11:30:41.051Z,1.10
2022-10-03T11:33:46.580Z,1.00
2022-10-03T11:36:37.007Z,1.00
2022-10-03T11:39:27.891Z,1.50
2022-10-03T11:42:28.694Z,0.90
2022-10-03T11:45:02.729Z,1.00
2022-10-03T11:47:44.836Z,1.00
2022-10-03T11:50:32.679Z,1.00
2022-10-03T11:53:15.487Z,0.90
2022-10-03T11:56:08.457Z,1.00
2022-10-03T11:58:48.300Z,1.10
2022-10-03T12:01:56.875Z,1.00
2022-10-03T12:05:01.862Z,1.40
2022-10-03T12:08:04.666Z,1.20
2022-10-03T12:11:01.394Z,1.10
2022-10-03T12:14:11.563Z,1.70
2022-10-03T12:19:48.470Z,1.60
2022-10-03T12:22:53.334Z,1.20
2022-10-03T12:25:40.281Z,1.60
2022-10-03T12:28:24.239Z,1.60
2022-10-03T12:31:02.768Z,1.30
2022-10-03T12:33:46.653Z,1.60
2022-10-03T12:36:35.702Z,1.50
2022-10-03T12:39:32.427Z,1.30
2022-10-03T12:42:24.300Z,1.70
2022-10-03T12:44:59.647Z,1.40
2022-10-03T12:47:57.751Z,1.60
2022-10-03T12:50:57.137Z,1.30
2022-10-03T12:53:41.956Z,1.30
2022-10-03T12:56:27.863Z,1.50
2022-10-03T12:59:24.063Z,1.20
2022-10-03T13:02:00.989Z,1.10
2022-10-03T13:04:33.945Z,1.70
2022-10-03T13:07:25.120Z,1.30
2022-10-03T13:10:13.028Z,1.50
2022-10-03T13:12:47.189Z,1.50
2022-10-03T13:15:44.948Z,1.10
2022-10-03T13:18:31.089Z,1.50
2022-10-03T13:21:44.563Z,1.40
2022-10-03T13:24:38.860Z,1.40
2022-10-03T13:27:19.053Z,1.50
2022-10-03T13:30:05.681Z,1.50
2022-10-03T13:32:40.950Z,1.50
2022-10-03T13:35:38.259Z,1.30
2022-10-03T13:39:00.029Z,1.50
2022-10-03T13:41:44.232Z,1.40
2022-10-03T13:44:35.166Z,1.30
2022-10-03T13:47:30.376Z,1.50
2022-10-03T13:50:05.411Z,1.30
2022-10-03T13:52:57.864Z,1.30
2022-10-03T13:55:46.492Z,1.10
2022-10-03T13:58:33.221Z,1.50
2022-10-03T14:01:22.090Z,1.30
2022-10-03T14:04:19.809Z,1.70
2022-10-03T14:07:02.993Z,0.90
2022-10-03T14:10:09.184Z,1.40
2022-10-03T14:13:22.284Z,1.20
2022-10-03T14:16:11.210Z,1.10
2022-10-03T14:18:47.262Z,1.10
2022-10-03T14:21:32.638Z,1.10
2022-10-03T14:24:24.981Z,1.30
2022-10-03T14:27:16.308Z,1.20
2022-10-03T14:29:52.897Z,1.70
2022-10-03T14:32:46.706Z,1.10
2022-10-03T14:35:38.327Z,1.10
2022-10-03T14:39:03.395Z,1.20
2022-10-03T14:41:33.314Z,1.30
2022-10-03T14:44:30.781Z,1.20
2022-10-03T14:47:22.249Z,1.10
2022-10-03T14:50:00.055Z,1.20
2022-10-03T14:52:51.637Z,1.20
2022-10-03T14:55:32.635Z,1.50
2022-10-03T14:58:11.372Z,1.20
2022-10-03T15:00:44.088Z,1.10
2022-10-03T15:03:38.270Z,1.10
2022-10-03T15:06:11.601Z,1.10
2022-10-03T15:08:45.916Z,1.20
2022-10-03T15:11:17.608Z,1.20
2022-10-03T15:13:55.193Z,1.20
2022-10-03T15:16:25.314Z,1.20
2022-10-03T15:18:57.109Z,1.10
2022-10-03T15:21:36.617Z,1.30
2022-10-03T15:24:14.960Z,1.10
2022-10-03T15:26:43.832Z,1.10
2022-10-03T15:29:17.549Z,1.30
2022-10-03T15:31:51.261Z,1.30
2022-10-03T15:34:34.688Z,1.00
2022-10-03T15:37:18.753Z,1.40
2022-10-03T15:39:54.212Z,1.10
2022-10-03T15:42:28.829Z,1.00
2022-10-03T15:44:55.689Z,1.40
2022-10-03T15:47:29.986Z,1.30
2022-10-03T15:50:32.364Z,1.60
2022-10-03T15:53:37.467Z,1.20
2022-10-03T15:56:24.305Z,1.30
2022-10-03T15:59:01.356Z,1.20
2022-10-03T16:01:42.702Z,1.30
2022-10-03T16:04:27.608Z,1.60
2022-10-03T16:07:14.521Z,1.30
2022-10-03T16:10:14.903Z,1.20
2022-10-03T16:13:00.825Z,1.70
2022-10-03T16:15:54.914Z,1.20
2022-10-03T16:18:22.992Z,1.30
2022-10-03T16:21:05.645Z,1.40
2022-10-03T16:23:37.147Z,1.40
2022-10-03T16:26:11.417Z,1.10
2022-10-03T16:28:45.093Z,1.60
2022-10-03T16:31:29.026Z,1.20
2022-10-03T16:34:07.626Z,1.20
2022-10-03T16:36:44.023Z,1.20
2022-10-03T16:39:22.225Z,1.00
2022-10-03T16:41:55.607Z,1.20
2022-10-03T16:44:51.211Z,1.10
2022-10-03T16:47:30.655Z,1.10
2022-10-03T16:50:19.613Z,1.30
2022-10-03T16:52:53.712Z,1.00
2022-10-03T16:55:20.783Z,1.30
2022-10-03T16:58:07.364Z,1.20
2022-10-03T17:01:15.121Z,1.20
2022-10-03T17:03:48.671Z,1.00
2022-10-03T17:06:23.234Z,1.30
2022-10-03T17:08:58.458Z,1.10
2022-10-03T17:11:27.831Z,1.10
2022-10-03T17:14:01.452Z,1.10
2022-10-03T17:16:47.897Z,1.40
2022-10-03T17:19:56.783Z,1.40
2022-10-03T17:22:36.223Z,1.50
2022-10-03T17:25:29.257Z,1.40
2022-10-03T17:28:03.573Z,1.70
2022-10-03T17:30:45.529Z,1.20
2022-10-03T17:33:44.617Z,1.50
2022-10-03T17:36:50.599Z,1.30
2022-10-03T17:39:29.607Z,1.90
2022-10-03T17:42:13.098Z,1.10
2022-10-03T17:45:03.232Z,1.00
2022-10-03T17:48:08.237Z,1.40
2022-10-03T17:50:44.490Z,1.10
2022-10-03T17:53:21.500Z,1.70
2022-10-03T17:56:02.171Z,1.50
2022-10-03T17:58:31.930Z,1.20
2022-10-03T18:01:34.477Z,1.50
2022-10-03T18:04:05.729Z,1.80
2022-10-03T18:07:00.105Z,1.30
2022-10-03T18:09:43.625Z,1.50
2022-10-03T18:12:23.554Z,1.60
2022-10-03T18:15:28.553Z,1.60
2022-10-03T18:18:14.779Z,1.70
2022-10-03T18:20:48.121Z,1.20
2022-10-03T18:23:50.057Z,1.30
2022-10-03T18:26:36.099Z,1.50
2022-10-03T18:29:30.597Z,1.40
2022-10-03T18:32:14.119Z,2.00
2022-10-03T18:35:01.019Z,1.50
2022-10-03T18:37:34.140Z,1.60
2022-10-03T18:40:06.303Z,1.10
2022-10-03T18:42:36.632Z,1.30
2022-10-03T18:45:06.916Z,1.50
2022-10-03T18:47:46.293Z,1.50
2022-10-03T18:50:27.487Z,1.30
2022-10-03T18:53:01.247Z,1.20
2022-10-03T18:55:30.352Z,1.30
2022-10-03T18:58:18.183Z,1.50
2022-10-03T19:01:12.247Z,1.20
2022-10-03T19:03:57.971Z,1.30
2022-10-03T19:06:36.998Z,1.50
2022-10-03T19:09:13.503Z,1.10
2022-10-03T19:11:48.219Z,1.20
2022-10-03T19:14:26.216Z,1.50
2022-10-03T19:17:15.067Z,1.30
2022-10-03T19:19:59.194Z,1.30
2022-10-03T19:22:40.540Z,1.40
2022-10-03T19:25:22.620Z,1.60
2022-10-03T19:29:14.136Z,1.40
2022-10-03T19:32:20.868Z,1.50
2022-10-03T19:35:04.138Z,1.50
2022-10-03T19:37:40.784Z,1.60
2022-10-03T19:40:30.241Z,2.40
2022-10-03T19:43:17.439Z,7.60
2022-10-03T19:46:00.348Z,16.20
2022-10-03T19:48:29.812Z,22.20
2022-10-03T19:50:57.516Z,30.60
2022-10-03T19:53:24.589Z,38.80
2022-10-03T19:55:53.288Z,43.00
2022-10-03T19:58:27.358Z,44.20
2022-10-03T20:00:59.070Z,48.00
2022-10-03T20:03:33.296Z,52.00
2022-10-03T20:06:06.143Z,55.60
2022-10-03T20:08:46.681Z,54.50
2022-10-03T20:11:16.472Z,54.80
2022-10-03T20:13:48.535Z,54.70
2022-10-03T20:16:25.081Z,54.80
2022-10-03T20:18:56.922Z,56.80
2022-10-03T20:21:30.404Z,54.20
2022-10-03T20:23:58.803Z,53.40
2022-10-03T20:26:36.510Z,55.80
2022-10-03T20:29:09.170Z,49.90
2022-10-03T20:31:38.809Z,50.80
2022-10-03T20:34:13.062Z,48.90
2022-10-03T20:36:48.085Z,46.30
2022-10-03T20:39:33.119Z,46.90
2022-10-03T20:42:31.205Z,47.40
2022-10-03T20:45:02.473Z,45.40
2022-10-03T20:47:53.719Z,46.00
2022-10-03T20:50:32.522Z,43.60
2022-10-03T20:53:02.308Z,41.80
2022-10-03T20:55:39.592Z,40.50
2022-10-03T20:58:20.709Z,41.10
2022-10-03T21:00:59.468Z,41.90
2022-10-03T21:03:35.108Z,41.00
2022-10-03T21:06:04.699Z,39.80
2022-10-03T21:08:41.160Z,38.30
2022-10-03T21:11:11.005Z,37.70
2022-10-03T21:13:51.336Z,35.10
2022-10-03T21:16:35.024Z,35.10
2022-10-03T21:19:15.363Z,36.40
2022-10-03T21:21:56.774Z,33.20
2022-10-03T21:24:38.720Z,33.10
2022-10-03T21:27:11.548Z,32.70
2022-10-03T21:29:41.519Z,32.70
2022-10-03T21:32:25.463Z,33.10
2022-10-03T21:35:10.512Z,31.00
2022-10-03T21:37:50.842Z,31.40
2022-10-03T21:40:33.503Z,31.50
2022-10-03T21:43:28.091Z,30.30
2022-10-03T21:46:33.087Z,29.00
2022-10-03T21:49:17.967Z,30.20
2022-10-03T21:51:47.868Z,28.90
2022-10-03T21:54:47.090Z,28.40
2022-10-03T21:57:35.328Z,28.90
2022-10-03T22:00:16.560Z,28.20
2022-10-03T22:03:01.880Z,29.30
2022-10-03T22:05:34.615Z,27.50
2022-10-03T22:08:21.897Z,28.40
2022-10-03T22:11:00.149Z,27.40
2022-10-03T22:13:30.995Z,27.00
2022-10-03T22:16:27.303Z,27.30
2022-10-03T22:19:03.066Z,27.80
2022-10-03T22:21:41.923Z,27.30
2022-10-03T22:24:35.249Z,26.70
2022-10-03T22:27:10.968Z,26.00
2022-10-03T22:29:37.828Z,27.00
2022-10-03T22:32:29.181Z,25.70
2022-10-03T22:35:09.002Z,26.30
2022-10-03T22:37:36.536Z,25.10
2022-10-03T22:40:04.881Z,24.90
2022-10-03T22:42:40.160Z,25.70
2022-10-03T22:45:08.397Z,24.60
2022-10-03T22:47:37.567Z,26.30
2022-10-03T22:50:11.275Z,24.60
2022-10-03T22:52:46.484Z,25.20
2022-10-03T22:55:16.600Z,24.80
2022-10-03T22:57:45.370Z,24.00
2022-10-03T23:00:16.754Z,25.00
2022-10-03T23:03:10.313Z,23.90
2022-10-03T23:06:15.975Z,23.50
2022-10-03T23:09:00.811Z,24.30
2022-10-03T23:11:30.503Z,23.40
2022-10-03T23:14:03.883Z,23.10
2022-10-03T23:16:52.425Z,23.90
2022-10-03T23:19:40.538Z,24.00
2022-10-03T23:22:16.192Z,24.30
2022-10-03T23:25:07.113Z,23.00
2022-10-03T23:28:02.723Z,23.50
2022-10-03T23:30:29.673Z,22.70
2022-10-03T23:33:00.687Z,22.20
2022-10-03T23:35:30.716Z,24.50
2022-10-03T23:37:59.879Z,22.80
2022-10-03T23:40:48.176Z,22.90
2022-10-03T23:43:40.560Z,22.40
2022-10-03T23:46:15.769Z,22.00
2022-10-03T23:48:58.485Z,23.00
2022-10-03T23:51:30.402Z,22.40
2022-10-03T23:54:02.843Z,23.30
2022-10-03T23:56:35.944Z,21.70
2022-10-03T23:59:02.813Z,22.20
